TimeCST,TemperatureF,Dew PointF,Humidity,Sea Level PressureIn,VisibilityMPH,Wind Direction,Wind SpeedMPH,Gust SpeedMPH,PrecipitationIn,Events,Conditions,WindDirDegrees,DateUTC
12:51 AM,19.9,18.0,92,30.03,2.0,Calm,Calm,-,0.01,Snow,Light Snow,0,2013-02-04 06:51:00
1:24 AM,19.4,17.6,93,29.97,1.5,SE,3.5,-,0.01,Snow,Light Snow,130,2013-02-04 07:24:00
1:51 AM,21.0,19.0,92,29.99,1.5,ESE,4.6,-,0.01,Snow,Light Snow,110,2013-02-04 07:51:00
2:14 AM,21.2,19.4,93,29.95,2.5,East,5.8,-,0.00,Snow,Light Snow,100,2013-02-04 08:14:00
2:22 AM,21.2,19.4,93,29.95,1.5,East,6.9,-,0.00,Snow,Light Snow,100,2013-02-04 08:22:00
2:47 AM,21.2,19.4,93,29.93,1.5,SE,8.1,-,0.01,Snow,Light Snow,130,2013-02-04 08:47:00
2:51 AM,21.0,19.0,92,29.96,1.5,SE,6.9,-,0.02,Snow,Light Snow,130,2013-02-04 08:51:00
3:09 AM,21.2,19.4,93,29.92,1.0,SE,6.9,-,0.01,Snow,Light Snow,130,2013-02-04 09:09:00
4:51 AM,21.2,19.4,93,29.89,1.0,East,5.8,-,N/A,Snow,Light Snow,90,2013-02-04 10:51:00
5:19 AM,21.2,21.2,100,29.89,0.8,East,3.5,-,0.01,Snow,Light Snow,80,2013-02-04 11:19:00
5:51 AM,21.9,21.0,96,29.92,0.8,NE,6.9,-,0.03,Snow,Light Snow,50,2013-02-04 11:51:00
6:24 AM,23.0,21.2,93,29.87,1.2,ENE,9.2,-,0.02,Snow,Light Snow,70,2013-02-04 12:24:00
6:38 AM,23.0,21.2,93,29.88,1.8,ENE,8.1,-,0.02,Snow,Light Snow,60,2013-02-04 12:38:00
6:51 AM,23.0,21.0,92,29.91,2.5,ENE,9.2,-,0.02,Snow,Light Snow,60,2013-02-04 12:51:00
6:58 AM,23.0,21.2,93,29.88,2.5,ENE,8.1,-,0.00,Snow,Light Snow,60,2013-02-04 12:58:00
7:37 AM,24.8,21.2,86,29.86,3.0,ESE,8.1,-,0.00,Snow,Light Snow,110,2013-02-04 13:37:00
7:51 AM,25.0,21.9,88,29.89,4.0,East,8.1,-,0.00,Snow,Light Snow,90,2013-02-04 13:51:00
8:16 AM,24.8,21.2,86,29.87,5.0,ENE,8.1,-,0.00,Snow,Light Snow,70,2013-02-04 14:16:00
8:51 AM,25.0,23.0,92,29.90,6.0,ENE,8.1,-,0.00,Snow,Light Snow,60,2013-02-04 14:51:00
9:08 AM,24.8,23.0,93,29.86,8.0,East,6.9,-,0.00,,Overcast,80,2013-02-04 15:08:00
9:51 AM,26.1,21.9,84,29.88,9.0,East,8.1,-,0.00,,Overcast,80,2013-02-04 15:51:00
10:51 AM,27.0,23.0,85,29.88,8.0,East,6.9,-,N/A,,Overcast,90,2013-02-04 16:51:00
11:51 AM,28.0,23.0,81,29.88,8.0,NNE,8.1,-,0.00,,Overcast,30,2013-02-04 17:51:00
12:49 PM,28.4,23.0,80,29.83,10.0,NNE,9.2,-,0.00,,Overcast,20,2013-02-04 18:49:00
12:51 PM,28.0,23.0,81,29.86,10.0,NNE,9.2,-,0.00,,Overcast,20,2013-02-04 18:51:00
1:51 PM,27.0,23.0,85,29.87,10.0,North,16.1,-,0.00,,Overcast,10,2013-02-04 19:51:00
2:51 PM,27.0,23.0,85,29.89,9.0,North,16.1,-,N/A,,Overcast,10,2013-02-04 20:51:00
3:03 PM,26.6,21.2,80,29.86,9.0,NNE,18.4,-,N/A,,Overcast,20,2013-02-04 21:03:00
3:51 PM,27.0,21.9,81,29.87,10.0,NNE,18.4,-,N/A,,Overcast,20,2013-02-04 21:51:00
4:51 PM,24.1,19.9,84,29.90,10.0,North,16.1,-,N/A,,Overcast,10,2013-02-04 22:51:00
5:11 PM,24.8,19.4,80,29.88,10.0,North,12.7,-,N/A,,Overcast,350,2013-02-04 23:11:00
5:51 PM,23.0,19.0,85,29.94,10.0,North,12.7,-,N/A,,Overcast,350,2013-02-04 23:51:00
6:51 PM,21.0,16.0,81,29.96,10.0,North,12.7,-,N/A,,Overcast,350,2013-02-05 00:51:00
7:14 PM,19.4,15.8,86,29.92,10.0,North,12.7,-,N/A,,Mostly Cloudy,350,2013-02-05 01:14:00
7:51 PM,18.0,14.0,84,29.96,10.0,North,8.1,-,N/A,,Mostly Cloudy,350,2013-02-05 01:51:00
8:51 PM,19.0,14.0,81,29.98,10.0,NNW,5.8,-,N/A,,Mostly Cloudy,340,2013-02-05 02:51:00
9:51 PM,18.0,12.9,81,29.97,10.0,North,5.8,-,N/A,,Overcast,350,2013-02-05 03:51:00
10:51 PM,15.1,9.0,77,29.97,10.0,NNW,8.1,-,N/A,,Mostly Cloudy,340,2013-02-05 04:51:00
11:51 PM,12.9,7.0,77,29.98,10.0,NNW,4.6,-,N/A,,Mostly Cloudy,340,2013-02-05 05:51:00